Time,TemperatureF,DewpointF,PressureIn,WindDirection,WindDirectionDegrees,WindSpeedMPH,WindSpeedGustMPH,Humidity,HourlyPrecipIn,Conditions,Clouds,dailyrainin,SoftwareType,DateUTC
2013-06-11 06:51:00,79.4,32.2,30.04,North,358,0.0,6.0,18,0.00,,,0.00,Wunderground v.1.15,2013-06-11 13:51:00,
2013-06-11 07:00:00,79.8,31.1,30.04,NE,56,1.0,3.0,17,0.00,,,0.00,Wunderground v.1.15,2013-06-11 14:00:00,
2013-06-11 07:10:00,79.0,31.9,30.05,NE,49,2.0,4.0,18,0.00,,,0.00,Wunderground v.1.15,2013-06-11 14:10:00,
2013-06-11 07:20:00,77.6,29.3,30.05,ENE,63,2.0,2.0,17,0.00,,,0.00,Wunderground v.1.15,2013-06-11 14:20:00,
2013-06-11 07:30:00,77.3,30.5,30.06,ENE,57,2.0,3.0,18,0.00,,,0.00,Wunderground v.1.15,2013-06-11 14:30:00,
2013-06-11 07:40:00,76.9,31.5,30.07,NNW,332,2.0,2.0,19,0.00,,,0.00,Wunderground v.1.15,2013-06-11 14:40:00,
2013-06-11 07:50:00,77.9,29.5,30.07,NNW,329,1.0,1.0,17,0.00,,,0.00,Wunderground v.1.15,2013-06-11 14:50:00,
2013-06-11 08:00:00,79.9,29.7,30.07,NE,40,1.0,1.0,16,0.00,,,0.00,Wunderground v.1.15,2013-06-11 15:00:00,
2013-06-11 08:10:00,80.6,28.7,30.07,NE,44,1.0,3.0,15,0.00,,,0.00,Wunderground v.1.15,2013-06-11 15:10:00,
2013-06-11 08:20:00,80.8,31.9,30.07,NNE,24,2.0,3.0,17,0.00,,,0.00,Wunderground v.1.15,2013-06-11 15:20:00,
2013-06-11 08:30:00,81.1,30.6,30.07,SE,129,3.0,3.0,16,0.00,,,0.00,Wunderground v.1.15,2013-06-11 15:30:00,
2013-06-11 08:40:00,82.4,30.1,30.07,NNE,29,2.0,2.0,15,0.00,,,0.00,Wunderground v.1.15,2013-06-11 15:40:00,
2013-06-11 08:50:00,83.8,31.2,30.07,ESE,121,1.0,1.0,15,0.00,,,0.00,Wunderground v.1.15,2013-06-11 15:50:00,
2013-06-11 09:00:00,84.0,31.4,30.07,East,84,1.0,2.0,15,0.00,,,0.00,Wunderground v.1.15,2013-06-11 16:00:00,
2013-06-11 09:10:00,84.8,32.0,30.07,NE,48,1.0,2.0,15,0.00,,,0.00,Wunderground v.1.15,2013-06-11 16:10:00,
2013-06-11 09:20:00,85.9,31.2,30.07,NNE,30,2.0,2.0,14,0.00,,,0.00,Wunderground v.1.15,2013-06-11 16:20:00,
2013-06-11 09:30:00,87.4,32.3,30.07,East,100,1.0,3.0,14,0.00,,,0.00,Wunderground v.1.15,2013-06-11 16:30:00,
2013-06-11 09:40:00,87.1,30.3,30.07,NE,49,2.0,2.0,13,0.00,,,0.00,Wunderground v.1.15,2013-06-11 16:40:00,
2013-06-11 09:50:00,87.1,32.1,30.06,SE,136,2.0,2.0,14,0.00,,,0.00,Wunderground v.1.15,2013-06-11 16:50:00,
2013-06-11 10:00:00,88.9,31.7,30.07,SE,136,1.0,4.0,13,0.00,,,0.00,Wunderground v.1.15,2013-06-11 17:00:00,
2013-06-11 10:10:00,89.5,32.2,30.06,East,84,2.0,2.0,13,0.00,,,0.00,Wunderground v.1.15,2013-06-11 17:10:00,
2013-06-11 10:20:00,89.6,30.2,30.06,SE,138,2.0,2.0,12,0.00,,,0.00,Wunderground v.1.15,2013-06-11 17:20:00,
2013-06-11 10:30:00,91.3,33.6,30.06,WSW,240,2.0,3.0,13,0.00,,,0.00,Wunderground v.1.15,2013-06-11 17:30:00,
2013-06-11 10:40:00,92.0,34.1,30.06,ESE,120,2.0,2.0,13,0.00,,,0.00,Wunderground v.1.15,2013-06-11 17:40:00,
2013-06-11 10:50:00,93.3,35.1,30.06,East,81,2.0,2.0,13,0.00,,,0.00,Wunderground v.1.15,2013-06-11 17:50:00,
2013-06-11 11:00:00,92.9,34.8,30.06,ENE,65,2.0,2.0,13,0.00,,,0.00,Wunderground v.1.15,2013-06-11 18:00:00,
2013-06-11 11:10:00,93.7,35.4,30.06,South,176,1.0,3.0,13,0.00,,,0.00,Wunderground v.1.15,2013-06-11 18:10:00,
2013-06-11 11:20:00,94.1,35.7,30.05,NW,322,3.0,3.0,13,0.00,,,0.00,Wunderground v.1.15,2013-06-11 18:20:00,
2013-06-11 11:30:00,95.2,34.6,30.05,SE,136,3.0,6.0,12,0.00,,,0.00,Wunderground v.1.15,2013-06-11 18:30:00,
2013-06-11 11:40:00,94.2,35.8,30.04,SSW,196,2.0,2.0,13,0.00,,,0.00,Wunderground v.1.15,2013-06-11 18:40:00,
2013-06-11 11:50:00,95.4,36.8,30.04,SE,130,2.0,2.0,13,0.00,,,0.00,Wunderground v.1.15,2013-06-11 18:50:00,
2013-06-11 12:00:00,96.3,35.4,30.04,WNW,285,2.0,2.0,12,0.00,,,0.00,Wunderground v.1.15,2013-06-11 19:00:00,
2013-06-11 12:10:00,96.7,35.7,30.04,ENE,57,3.0,4.0,12,0.00,,,0.00,Wunderground v.1.15,2013-06-11 19:10:00,
2013-06-11 12:20:00,96.7,35.7,30.04,NE,46,5.0,6.0,12,0.00,,,0.00,Wunderground v.1.15,2013-06-11 19:20:00,
2013-06-11 12:30:00,95.8,37.1,30.03,NNW,336,6.0,6.0,13,0.00,,,0.00,Wunderground v.1.15,2013-06-11 19:30:00,
2013-06-11 12:40:00,97.0,36.0,30.03,East,91,2.0,2.0,12,0.00,,,0.00,Wunderground v.1.15,2013-06-11 19:40:00,
2013-06-11 12:50:00,98.1,36.8,30.02,SE,139,3.0,5.0,12,0.00,,,0.00,Wunderground v.1.15,2013-06-11 19:50:00,
2013-06-11 13:00:00,99.1,35.4,30.02,NE,38,3.0,3.0,11,0.00,,,0.00,Wunderground v.1.15,2013-06-11 20:00:00,
2013-06-11 13:10:00,99.5,35.7,30.02,East,86,3.0,3.0,11,0.00,,,0.00,Wunderground v.1.15,2013-06-11 20:10:00,
2013-06-11 13:20:00,100.5,28.5,30.01,SW,221,4.0,7.0,8,0.00,,,0.00,Wunderground v.1.15,2013-06-11 20:20:00,
2013-06-11 13:30:00,100.0,28.2,30.00,WNW,300,5.0,5.0,8,0.00,,,0.00,Wunderground v.1.15,2013-06-11 20:30:00,
2013-06-11 13:40:00,100.1,28.2,30.00,NW,306,3.0,3.0,8,0.00,,,0.00,Wunderground v.1.15,2013-06-11 20:40:00,
2013-06-11 13:50:00,100.8,28.7,30.00,SW,219,4.0,4.0,8,0.00,,,0.00,Wunderground v.1.15,2013-06-11 20:50:00,
2013-06-11 14:00:00,100.4,28.5,29.99,West,265,8.0,8.0,8,0.00,,,0.00,Wunderground v.1.15,2013-06-11 21:00:00,
2013-06-11 14:10:00,100.1,25.0,29.99,NW,319,6.0,7.0,7,0.00,,,0.00,Wunderground v.1.15,2013-06-11 21:10:00,
2013-06-11 14:20:00,100.5,28.5,29.99,NW,324,8.0,8.0,8,0.00,,,0.00,Wunderground v.1.15,2013-06-11 21:20:00,
2013-06-11 14:30:00,101.5,26.0,29.99,SW,224,5.0,12.0,7,0.00,,,0.00,Wunderground v.1.15,2013-06-11 21:30:00,
2013-06-11 14:40:00,99.9,24.9,29.99,NW,317,7.0,7.0,7,0.00,,,0.00,Wunderground v.1.15,2013-06-11 21:40:00,
2013-06-11 14:50:00,100.0,24.9,29.99,West,281,6.0,6.0,7,0.00,,,0.00,Wunderground v.1.15,2013-06-11 21:50:00,
2013-06-11 15:00:00,100.0,24.9,29.98,NNW,334,7.0,12.0,7,0.00,,,0.00,Wunderground v.1.15,2013-06-11 22:00:00,
2013-06-11 15:10:00,99.8,24.8,29.97,NNW,346,11.0,11.0,7,0.00,,,0.00,Wunderground v.1.15,2013-06-11 22:10:00,
2013-06-11 15:20:00,100.5,25.3,29.98,SSW,210,8.0,8.0,7,0.00,,,0.00,Wunderground v.1.15,2013-06-11 22:20:00,
2013-06-11 15:30:00,101.0,25.7,29.97,WNW,296,5.0,5.0,7,0.00,,,0.00,Wunderground v.1.15,2013-06-11 22:30:00,
2013-06-11 15:40:00,99.8,24.8,29.98,NW,307,8.0,8.0,7,0.00,,,0.00,Wunderground v.1.15,2013-06-11 22:40:00,
2013-06-11 15:50:00,101.0,22.0,29.98,NW,311,6.0,6.0,6,0.00,,,0.00,Wunderground v.1.15,2013-06-11 22:50:00,
2013-06-11 16:00:00,101.1,22.0,29.98,WNW,294,5.0,8.0,6,0.00,,,0.00,Wunderground v.1.15,2013-06-11 23:00:00,
2013-06-11 16:10:00,100.1,21.3,29.98,West,269,8.0,8.0,6,0.00,,,0.00,Wunderground v.1.15,2013-06-11 23:10:00,
2013-06-11 16:20:00,99.3,24.4,29.97,NW,325,6.0,6.0,7,0.00,,,0.00,Wunderground v.1.15,2013-06-11 23:20:00,
2013-06-11 16:30:00,98.8,24.1,29.98,WNW,300,6.0,6.0,7,0.00,,,0.00,Wunderground v.1.15,2013-06-11 23:30:00,
2013-06-11 16:40:00,99.5,20.9,29.97,SSW,207,5.0,5.0,6,0.00,,,0.00,Wunderground v.1.15,2013-06-11 23:40:00,
2013-06-11 16:50:00,97.9,23.4,29.98,NW,317,7.0,7.0,7,0.00,,,0.00,Wunderground v.1.15,2013-06-11 23:50:00,
2013-06-11 17:00:00,96.9,22.7,29.98,WNW,295,8.0,8.0,7,0.00,,,0.00,Wunderground v.1.15,2013-06-12 00:00:00,
2013-06-11 17:10:00,95.8,21.9,29.98,WSW,241,7.0,7.0,7,0.00,,,0.00,Wunderground v.1.15,2013-06-12 00:10:00,
2013-06-11 17:20:00,95.6,21.7,29.98,WNW,288,5.0,5.0,7,0.00,,,0.00,Wunderground v.1.15,2013-06-12 00:20:00,
2013-06-11 17:30:00,96.2,22.2,29.98,WNW,285,4.0,4.0,7,0.00,,,0.00,Wunderground v.1.15,2013-06-12 00:30:00,
2013-06-11 17:40:00,96.7,22.5,29.98,West,278,3.0,3.0,7,0.00,,,0.00,Wunderground v.1.15,2013-06-12 00:40:00,
2013-06-11 17:50:00,96.3,22.2,29.98,West,273,3.0,4.0,7,0.00,,,0.00,Wunderground v.1.15,2013-06-12 00:50:00,
2013-06-11 18:00:00,95.6,21.7,29.98,WNW,284,4.0,4.0,7,0.00,,,0.00,Wunderground v.1.15,2013-06-12 01:00:00,
2013-06-11 18:10:00,94.5,24.1,29.98,SW,230,4.0,4.0,8,0.00,,,0.00,Wunderground v.1.15,2013-06-12 01:10:00,
2013-06-11 18:20:00,93.5,20.2,29.99,WNW,299,3.0,4.0,7,0.00,,,0.00,Wunderground v.1.15,2013-06-12 01:20:00,
2013-06-11 18:31:00,92.9,19.8,29.99,West,260,4.0,4.0,7,0.00,,,0.00,Wunderground v.1.15,2013-06-12 01:31:00,
2013-06-11 18:40:00,92.4,22.6,29.99,West,281,2.0,2.0,8,0.00,,,0.00,Wunderground v.1.15,2013-06-12 01:40:00,
2013-06-11 18:50:00,92.0,22.3,30.00,NW,304,5.0,5.0,8,0.00,,,0.00,Wunderground v.1.15,2013-06-12 01:50:00,
2013-06-11 19:00:00,91.6,22.0,30.00,WSW,241,2.0,3.0,8,0.00,,,0.00,Wunderground v.1.15,2013-06-12 02:00:00,
2013-06-11 19:10:00,91.0,24.3,30.00,SW,230,3.0,3.0,9,0.00,,,0.00,Wunderground v.1.15,2013-06-12 02:10:00,
2013-06-11 19:20:00,90.8,24.2,30.00,WNW,295,3.0,3.0,9,0.00,,,0.00,Wunderground v.1.15,2013-06-12 02:20:00,
2013-06-11 19:30:00,90.1,23.6,30.00,WNW,283,3.0,6.0,9,0.00,,,0.00,Wunderground v.1.15,2013-06-12 02:30:00,
2013-06-11 19:40:00,89.1,25.4,30.01,WSW,238,2.0,2.0,10,0.00,,,0.00,Wunderground v.1.15,2013-06-12 02:40:00,
2013-06-11 19:50:00,88.1,24.7,30.00,SW,233,2.0,2.0,10,0.00,,,0.00,Wunderground v.1.15,2013-06-12 02:50:00,
2013-06-11 20:00:00,87.5,24.2,30.01,West,274,2.0,2.0,10,0.00,,,0.00,Wunderground v.1.15,2013-06-12 03:00:00,
2013-06-11 20:10:00,86.7,25.9,30.01,WSW,240,3.0,3.0,11,0.00,,,0.00,Wunderground v.1.15,2013-06-12 03:10:00,
2013-06-11 20:20:00,86.6,25.8,30.01,West,264,3.0,3.0,11,0.00,,,0.00,Wunderground v.1.15,2013-06-12 03:20:00,
2013-06-11 20:30:00,86.4,25.7,30.01,West,276,3.0,3.0,11,0.00,,,0.00,Wunderground v.1.15,2013-06-12 03:30:00,
2013-06-11 20:40:00,86.1,25.4,30.01,West,264,3.0,3.0,11,0.00,,,0.00,Wunderground v.1.15,2013-06-12 03:40:00,
2013-06-11 20:50:00,85.9,27.4,30.01,West,271,3.0,4.0,12,0.00,,,0.00,Wunderground v.1.15,2013-06-12 03:50:00,
2013-06-11 21:00:00,86.0,27.5,30.02,West,274,3.0,6.0,12,0.00,,,0.00,Wunderground v.1.15,2013-06-12 04:00:00,
2013-06-11 21:10:00,86.1,27.5,30.02,WNW,282,4.0,5.0,12,0.00,,,0.00,Wunderground v.1.15,2013-06-12 04:10:00,
2013-06-11 21:20:00,86.1,27.5,30.02,WSW,255,3.0,3.0,12,0.00,,,0.00,Wunderground v.1.15,2013-06-12 04:20:00,
2013-06-11 21:30:00,86.1,27.5,30.03,SSW,212,4.0,4.0,12,0.00,,,0.00,Wunderground v.1.15,2013-06-12 04:30:00,
2013-06-11 21:40:00,86.2,27.6,30.03,West,267,4.0,4.0,12,0.00,,,0.00,Wunderground v.1.15,2013-06-12 04:40:00,
2013-06-11 21:50:00,86.5,27.8,30.03,NW,317,5.0,6.0,12,0.00,,,0.00,Wunderground v.1.15,2013-06-12 04:50:00,